Time;durP1;ratioP1;P1;durP2;ratioP2;P2;SDS_P1;SDS_P2;PMS_P1;PMS_P2;Temp;Humidity;BMP_temperature;BMP_pressure;BME280_temperature;BME280_humidity;BME280_pressure;Samples;Min_cycle;Max_cycle;Signal;HPM_P1;HPM_P2
2022/01/24 00:02:07;;;;;;;23.63;9.47;;;-4.70;99.90;;;-7.39;80.59;101821.41;10397366;28;96563;-77
2022/01/24 00:07:10;;;;;;;26.50;10.03;;;-4.80;99.90;;;-7.48;80.34;101811.19;10382122;28;96623;-77
2022/01/24 00:12:18;;;;;;;32.77;11.63;;;-4.90;99.90;;;-7.56;79.94;101815.53;10404989;27;96580;-77
2022/01/24 00:17:39;;;;;;;27.40;9.33;;;-5.00;99.90;;;-7.62;80.88;101818.19;10360816;28;96575;-77
2022/01/24 00:28:04;;;;;;;20.90;7.75;;;-5.10;99.90;;;-7.73;80.23;101830.34;10414078;27;98616;-77
2022/01/24 00:33:07;;;;;;;32.77;11.83;;;-5.20;99.90;;;-7.81;80.42;101826.06;10408210;27;96553;-77
2022/01/24 00:38:10;;;;;;;26.70;9.67;;;-5.30;99.90;;;-7.89;80.84;101829.59;10396987;28;96630;-77
2022/01/24 00:43:25;;;;;;;28.20;7.87;;;-5.30;99.90;;;-7.98;80.83;101843.41;10415978;27;98426;-77
2022/01/24 00:58:46;;;;;;;23.73;9.37;;;-5.50;99.90;;;-8.24;81.38;101845.28;10397556;27;96483;-77
2022/01/24 01:03:50;;;;;;;29.60;9.80;;;-5.60;99.90;;;-8.28;81.11;101848.75;10413410;27;97058;-77
2022/01/24 01:19:37;;;;;;;16.08;6.60;;;-5.70;99.90;;;-8.28;82.27;101852.19;10449847;27;96602;-77
2022/01/24 01:24:46;;;;;;;17.60;7.53;;;-5.70;99.90;;;-8.28;83.06;101846.16;10404065;27;96671;-77
2022/01/24 01:30:01;;;;;;;23.30;8.27;;;-5.70;99.90;;;-8.32;82.96;101845.34;10408667;27;96528;-77
2022/01/24 01:56:25;;;;;;;10.50;4.75;;;-5.90;99.90;;;-8.53;83.00;101848.06;10417817;27;96659;-77
2022/01/24 02:01:28;;;;;;;22.50;7.43;;;-6.00;99.90;;;-8.55;83.30;101847.22;10417666;27;97360;-77
2022/01/24 02:06:32;;;;;;;19.23;6.73;;;-6.00;99.90;;;-8.59;83.35;101860.97;10416305;28;96621;-77
2022/01/24 02:11:36;;;;;;;14.67;5.53;;;-6.00;99.90;;;-8.59;83.63;101850.66;10405744;27;96549;-76
2022/01/24 02:22:06;;;;;;;16.97;6.83;;;-6.00;99.90;;;-8.46;83.98;101852.31;10439293;27;96558;-77
2022/01/24 02:27:10;;;;;;;18.23;6.13;;;-6.00;99.90;;;-8.39;84.18;101857.44;10426268;27;96702;-77
2022/01/24 02:32:13;;;;;;;19.40;6.43;;;-5.90;99.90;;;-8.36;84.52;101864.31;10384790;28;96708;-77
2022/01/24 02:37:19;;;;;;;18.83;6.27;;;-5.90;99.90;;;-8.38;84.09;101853.16;10377676;28;96529;-77
2022/01/24 02:53:09;;;;;;;12.87;4.90;;;-6.00;99.90;;;-8.55;83.71;101868.69;10454516;27;96471;-77
2022/01/24 02:58:13;;;;;;;8.30;3.83;;;-6.00;99.90;;;-8.57;84.16;101867.84;10421283;27;96446;-78
2022/01/24 03:03:17;;;;;;;15.50;5.40;;;-6.00;99.90;;;-8.56;84.21;101866.13;10382511;27;96662;-77
2022/01/24 03:08:22;;;;;;;14.77;5.10;;;-6.10;99.90;;;-8.61;83.71;101873.88;10375343;28;96531;-77
2022/01/24 03:18:29;;;;;;;18.57;6.43;;;-6.20;99.90;;;-8.82;83.55;101889.38;10399118;28;98373;-77
2022/01/24 03:23:32;;;;;;;14.87;6.03;;;-6.30;99.90;;;-8.94;83.47;101888.53;10421267;27;96582;-77
2022/01/24 03:28:34;;;;;;;24.23;7.67;;;-6.40;99.90;;;-9.06;83.59;101890.28;10379551;27;96694;-76
2022/01/24 03:33:37;;;;;;;20.80;7.70;;;-6.50;99.90;;;-9.18;83.61;101898.88;10431408;27;96614;-76
2022/01/24 03:38:40;;;;;;;32.17;8.77;;;-6.60;99.90;;;-9.24;83.69;101906.63;10428532;27;96457;-77
2022/01/24 03:43:44;;;;;;;55.90;18.53;;;-6.70;99.90;;;-9.25;84.30;101920.38;10423221;27;96658;-76
2022/01/24 03:48:55;;;;;;;17.57;6.70;;;-6.70;99.90;;;-9.29;84.45;101908.38;10403033;27;96541;-77
2022/01/24 03:53:58;;;;;;;17.30;7.97;;;-6.70;99.90;;;-9.34;84.38;101904.94;10359173;28;96504;-77
2022/01/24 03:59:01;;;;;;;25.43;8.87;;;-6.80;99.90;;;-9.38;84.03;101898.91;10406241;27;96882;-77
2022/01/24 04:04:03;;;;;;;22.47;9.53;;;-6.80;99.90;;;-9.41;84.82;101898.03;10382689;28;97195;-76
2022/01/24 04:09:06;;;;;;;15.67;7.27;;;-6.90;99.90;;;-9.47;84.39;101899.78;10359470;28;96664;-76
2022/01/24 04:24:40;;;;;;;16.50;6.57;;;-7.00;99.90;;;-9.67;84.94;101922.06;10400232;27;97245;-76
2022/01/24 04:29:43;;;;;;;17.00;5.53;;;-7.10;99.90;;;-9.66;84.99;101915.19;10415127;28;96601;-76
2022/01/24 04:34:47;;;;;;;13.20;4.07;;;-7.10;99.90;;;-9.69;85.05;101920.34;10395462;28;96639;-80
2022/01/24 04:39:50;;;;;;;17.00;4.60;;;-7.10;99.90;;;-9.73;85.50;101930.63;10367574;27;96903;-80
2022/01/24 04:55:16;;;;;;;16.47;5.73;;;-7.10;99.90;;;-9.74;85.21;101933.19;10397085;27;96599;-77
2022/01/24 05:00:21;;;;;;;12.90;4.80;;;-7.10;99.90;;;-9.74;85.42;101940.91;10346771;28;96431;-77
2022/01/24 05:05:26;;;;;;;25.83;7.77;;;-7.10;99.90;;;-9.66;85.90;101952.06;10398782;28;97543;-77
2022/01/24 05:10:39;;;;;;;25.17;8.37;;;-7.10;99.90;;;-9.60;85.33;101952.09;10415253;27;96524;-77
2022/01/24 05:26:44;;;;;;;21.07;6.33;;;-7.10;99.90;;;-9.66;85.77;101985.53;10316839;28;96627;-77
2022/01/24 05:31:47;;;;;;;30.83;10.70;;;-7.10;99.90;;;-9.74;85.27;101985.50;10419984;27;96638;-77
2022/01/24 05:36:50;;;;;;;61.47;21.00;;;-7.10;99.90;;;-9.76;85.45;101988.94;10421013;28;96602;-77
2022/01/24 05:41:53;;;;;;;26.97;9.27;;;-7.20;99.90;;;-9.81;86.13;101998.38;10430685;27;97119;-77
2022/01/24 05:46:57;;;;;;;28.20;9.60;;;-7.20;99.90;;;-9.87;85.83;101999.19;10418346;28;98017;-77
2022/01/24 05:52:00;;;;;;;32.20;9.50;;;-7.30;99.90;;;-9.94;86.16;102007.75;10421423;28;97031;-77
2022/01/24 05:57:04;;;;;;;44.97;15.87;;;-7.30;99.90;;;-9.95;86.08;102018.00;10397032;28;96500;-78
2022/01/24 06:02:07;;;;;;;20.27;8.77;;;-7.40;99.90;;;-9.99;85.98;102012.03;10420851;28;96564;-78
2022/01/24 06:07:10;;;;;;;30.13;9.47;;;-7.40;99.90;;;-9.99;86.38;102025.75;10402838;28;96587;-78
2022/01/24 06:12:13;;;;;;;21.93;10.47;;;-7.40;99.90;;;-9.95;85.97;102033.44;10406874;27;96604;-78
2022/01/24 06:17:17;;;;;;;27.13;9.27;;;-7.40;99.90;;;-9.97;86.74;102031.72;10403273;28;96677;-78
2022/01/24 06:22:20;;;;;;;25.60;10.33;;;-7.40;99.90;;;-10.00;86.72;102039.44;10401052;27;96538;-78
2022/01/24 06:27:23;;;;;;;21.93;8.37;;;-7.40;99.90;;;-10.01;86.55;102034.31;10414705;28;96659;-78
2022/01/24 06:32:26;;;;;;;27.77;8.47;;;-7.50;99.90;;;-10.03;86.75;102042.00;10419814;27;97283;-78
2022/01/24 06:37:30;;;;;;;28.73;8.73;;;-7.50;99.90;;;-10.01;86.91;102054.88;10398887;27;96565;-77
2022/01/24 06:42:33;;;;;;;23.40;10.43;;;-7.40;99.90;;;-10.01;86.60;102048.03;10360104;28;96901;-77
2022/01/24 06:47:36;;;;;;;29.33;11.27;;;-7.40;99.90;;;-9.93;86.87;102066.06;10375116;27;98106;-78
2022/01/24 06:52:39;;;;;;;36.37;9.60;;;-7.40;99.90;;;-9.85;86.64;102072.09;10414383;27;97442;-77
2022/01/24 06:57:42;;;;;;;31.20;10.80;;;-7.30;99.90;;;-9.72;87.03;102062.69;10380940;27;96537;-77
2022/01/24 07:02:45;;;;;;;47.33;17.23;;;-7.30;99.90;;;-9.57;86.91;102077.34;10432638;27;96604;-77
2022/01/24 07:07:48;;;;;;;42.20;15.20;;;-7.10;99.90;;;-9.39;87.73;102086.84;10411776;27;96558;-78
2022/01/24 07:12:51;;;;;;;62.30;20.77;;;-7.00;99.90;;;-8.48;88.34;102081.78;10431233;27;96720;-78
2022/01/24 07:18:14;;;;;;;57.60;22.37;;;-6.70;99.90;;;-7.27;88.75;102086.50;10382637;28;96552;-78
2022/01/24 07:23:17;;;;;;;54.97;21.40;;;-6.30;99.90;;;-6.16;88.67;102091.69;10405353;27;96677;-78
2022/01/24 07:28:20;;;;;;;51.30;20.60;;;-5.70;99.90;;;-5.39;86.64;102092.47;10408452;27;96564;-78
2022/01/24 07:33:22;;;;;;;54.60;22.50;;;-5.10;99.90;;;-4.84;84.00;102091.69;10376889;28;96555;-78
2022/01/24 07:38:25;;;;;;;77.23;30.03;;;-4.50;99.90;;;-4.22;81.58;102091.50;10369514;28;97036;-78
2022/01/24 07:43:29;;;;;;;63.67;25.60;;;-3.90;99.90;;;-3.85;78.69;102102.91;10357891;28;96602;-78
2022/01/24 07:48:33;;;;;;;38.97;14.97;;;-3.40;99.90;;;-3.80;76.06;102108.88;10361363;28;96652;-78
2022/01/24 07:53:35;;;;;;;30.57;13.67;;;-3.10;99.90;;;-3.63;73.86;102116.34;10375262;28;98494;-78
2022/01/24 07:58:45;;;;;;;30.10;14.90;;;-2.70;99.90;;;-3.29;71.93;102110.47;10359849;28;96554;-77
2022/01/24 08:03:48;;;;;;;36.37;16.17;;;-2.60;99.90;;;-2.93;70.23;102118.34;10367425;28;96500;-77
2022/01/24 08:08:51;;;;;;;32.13;15.27;;;-2.40;99.90;;;-2.85;69.07;102122.47;10365015;28;96985;-77
2022/01/24 08:13:55;;;;;;;37.57;17.63;;;-2.10;99.90;;;-2.25;68.65;102118.44;10378011;27;96581;-77
2022/01/24 08:18:59;;;;;;;36.57;18.00;;;-1.80;99.90;;;-1.57;67.58;102114.84;10374089;28;96429;-77
2022/01/24 08:24:05;;;;;;;41.57;20.53;;;-1.20;99.90;;;-0.91;65.53;102117.22;10383008;28;96500;-77
2022/01/24 08:29:08;;;;;;;42.13;21.57;;;-0.60;99.90;;;-0.20;63.98;102113.16;10357234;28;96609;-77
2022/01/24 08:34:12;;;;;;;47.13;22.50;;;0.00;99.90;;;0.43;62.37;102113.59;10402963;28;96515;-77
2022/01/24 08:39:15;;;;;;;43.27;22.20;;;0.70;99.90;;;1.00;60.38;102114.91;10408393;27;96897;-77
2022/01/24 08:49:40;;;;;;;43.37;22.17;;;2.00;99.90;;;2.00;56.72;102109.91;10428303;27;96633;-77
2022/01/24 08:54:43;;;;;;;41.53;20.40;;;2.60;99.90;;;2.42;54.90;102117.66;10430738;27;96410;-77
2022/01/24 08:59:46;;;;;;;38.50;17.23;;;3.10;99.90;;;2.80;51.81;102107.19;10403374;27;96587;-77
2022/01/24 09:04:49;;;;;;;24.80;11.57;;;3.50;95.30;;;3.10;49.89;102111.91;10416082;27;96516;-77
2022/01/24 09:09:52;;;;;;;50.37;20.30;;;3.90;97.50;;;3.34;48.27;102118.63;10423744;27;96961;-77
2022/01/24 09:14:55;;;;;;;25.80;11.67;;;4.20;94.70;;;3.56;46.52;102112.31;10414875;28;96381;-75
2022/01/24 09:19:59;;;;;;;21.50;11.70;;;4.40;87.00;;;3.42;46.41;102111.22;10416392;27;96554;-76
2022/01/24 09:25:18;;;;;;;13.43;7.43;;;4.40;79.50;;;3.40;45.44;102122.72;10412645;27;97184;-75
2022/01/24 09:30:23;;;;;;;18.63;8.13;;;4.40;82.50;;;3.72;45.66;102108.84;10431408;27;96779;-76
2022/01/24 09:35:28;;;;;;;14.97;8.03;;;4.70;80.30;;;4.02;45.00;102101.19;10395627;27;96634;-74
2022/01/24 09:40:32;;;;;;;10.97;5.93;;;4.90;78.50;;;4.38;44.67;102105.44;10419491;27;96557;-76
2022/01/24 09:45:37;;;;;;;13.13;6.83;;;5.20;76.60;;;4.75;44.06;102106.94;10418732;27;98298;-76
2022/01/24 09:50:40;;;;;;;10.67;5.50;;;5.70;77.60;;;4.98;41.11;102097.78;10412993;27;96693;-76
2022/01/24 09:55:43;;;;;;;11.90;5.60;;;6.00;69.30;;;5.04;40.61;102086.91;10437100;27;97982;-76
2022/01/24 10:00:47;;;;;;;8.70;5.03;;;6.30;70.50;;;5.23;39.73;102088.50;10412717;28;96472;-76
2022/01/24 10:05:56;;;;;;;8.93;5.00;;;6.40;63.50;;;4.47;39.09;102083.88;10412431;28;96409;-76
2022/01/24 10:11:07;;;;;;;10.50;5.50;;;5.70;58.80;;;3.55;39.69;102085.19;10401373;27;96528;-76
2022/01/24 10:21:52;;;;;;;12.90;5.30;;;4.50;58.10;;;1.54;42.38;102084.78;10462609;27;96529;-76
2022/01/24 10:27:29;;;;;;;8.10;4.43;;;3.80;59.20;;;1.78;44.29;102077.66;10424073;27;96644;-75
2022/01/24 10:32:51;;;;;;;9.90;4.47;;;3.70;61.20;;;2.62;43.94;102080.00;10402307;28;96439;-76
2022/01/24 10:43:37;;;;;;;11.27;4.93;;;4.80;57.80;;;4.19;39.99;102075.75;10440641;27;97188;-76
2022/01/24 10:48:44;;;;;;;12.93;6.47;;;5.30;59.00;;;4.02;38.89;102063.50;10434215;27;96892;-76
2022/01/24 10:53:55;;;;;;;9.43;4.93;;;5.50;58.70;;;3.82;39.31;102069.78;10434148;27;96546;-76
2022/01/24 10:59:14;;;;;;;7.33;3.60;;;5.60;57.20;;;4.55;39.10;102065.88;10429821;27;96577;-76
2022/01/24 11:04:18;;;;;;;9.67;3.90;;;6.00;59.10;;;5.06;37.33;102066.56;10400458;28;96682;-75
2022/01/24 11:09:28;;;;;;;7.47;4.40;;;6.30;55.70;;;5.40;36.31;102048.84;10427783;27;96454;-76
2022/01/24 11:14:32;;;;;;;9.40;4.80;;;6.70;56.80;;;5.62;36.58;102046.59;10406977;27;96620;-76
2022/01/24 11:24:45;;;;;;;10.40;5.17;;;7.10;54.20;;;5.89;35.97;102049.41;10401064;27;96507;-76
2022/01/24 11:30:29;;;;;;;8.07;4.87;;;7.20;53.30;;;5.59;34.98;102048.59;10407557;27;96510;-75
2022/01/24 11:35:41;;;;;;;10.67;5.07;;;7.20;53.00;;;4.50;34.72;102049.50;10421036;27;96389;-76
2022/01/24 11:40:47;;;;;;;10.13;5.33;;;6.40;47.90;;;3.20;36.33;102048.34;10434608;27;96959;-75
2022/01/24 11:46:00;;;;;;;13.40;5.90;;;5.50;50.90;;;2.30;38.30;102041.28;10447809;27;96818;-75
2022/01/24 11:51:11;;;;;;;10.40;5.17;;;4.60;51.80;;;1.55;39.78;102040.16;10419908;27;96811;-75
2022/01/24 11:56:19;;;;;;;9.97;4.67;;;3.90;52.60;;;1.03;41.11;102037.09;10427460;27;98241;-75
2022/01/24 12:01:38;;;;;;;12.33;4.87;;;3.30;53.00;;;0.62;41.85;102030.03;10444320;27;96642;-74
2022/01/24 12:07:19;;;;;;;10.97;4.30;;;2.90;53.40;;;0.33;42.75;102033.75;10425952;27;96533;-75
2022/01/24 12:12:43;;;;;;;14.30;7.00;;;2.60;54.10;;;0.10;43.34;102019.75;10418483;28;96523;-75
2022/01/24 12:17:49;;;;;;;13.50;6.83;;;2.30;54.30;;;-0.08;44.15;102016.06;10416645;28;96913;-75
2022/01/24 12:22:52;;;;;;;7.80;4.37;;;2.10;55.00;;;-0.19;43.79;102020.81;10415967;27;96575;-75
2022/01/24 12:28:24;;;;;;;8.10;4.53;;;2.00;55.10;;;-0.30;44.03;102020.31;10381822;28;96581;-75
2022/01/24 12:33:39;;;;;;;8.40;4.30;;;1.80;55.10;;;-0.38;44.18;102015.38;10390224;27;96591;-75
2022/01/24 12:38:51;;;;;;;8.37;4.07;;;1.70;55.40;;;-0.44;44.25;102015.59;10419144;27;96568;-75
2022/01/24 12:44:09;;;;;;;10.20;4.40;;;1.60;55.20;;;-0.46;44.95;102012.19;10440059;27;96545;-75
2022/01/24 12:49:12;;;;;;;10.27;5.10;;;1.60;55.90;;;-0.49;44.60;102008.81;10456757;27;98150;-75
2022/01/24 12:54:16;;;;;;;9.23;4.27;;;1.60;55.50;;;-0.50;44.86;102010.56;10422752;27;96592;-76
2022/01/24 12:59:19;;;;;;;23.70;10.50;;;1.60;56.10;;;-0.51;44.62;101998.44;10440122;27;97712;-75
2022/01/24 13:04:39;;;;;;;12.30;5.37;;;1.50;55.60;;;-0.52;45.26;101998.50;10373878;28;98416;-75
2022/01/24 13:09:42;;;;;;;10.73;4.40;;;1.50;56.20;;;-0.52;45.19;101995.88;10408366;27;96862;-75
2022/01/24 13:14:51;;;;;;;11.90;5.10;;;1.50;56.20;;;-0.52;45.49;102001.09;10397439;28;96506;-76
2022/01/24 13:25:26;;;;;;;13.57;5.83;;;1.50;56.50;;;-0.53;45.64;101999.41;10441239;27;96515;-76
2022/01/24 13:30:47;;;;;;;12.93;5.93;;;1.50;56.80;;;-0.57;45.35;101998.63;10428101;27;96672;-76
2022/01/24 13:35:55;;;;;;;11.27;5.13;;;1.50;56.50;;;-0.58;45.76;102002.16;10394896;27;96659;-76
2022/01/24 13:41:07;;;;;;;9.00;4.37;;;1.50;56.60;;;-0.62;45.67;102000.56;10432743;27;98032;-76
2022/01/24 13:46:22;;;;;;;9.40;4.20;;;1.40;56.70;;;-0.65;45.01;101998.06;10457114;27;96463;-74
2022/01/24 13:51:48;;;;;;;15.30;5.63;;;1.40;56.40;;;-0.68;45.42;101991.16;10458035;27;96586;-76
2022/01/24 13:56:59;;;;;;;13.73;5.90;;;1.40;56.40;;;-0.71;45.63;102006.94;10378665;28;96814;-76
2022/01/24 14:02:16;;;;;;;17.53;7.73;;;1.40;56.70;;;-0.72;46.08;102006.97;10383387;27;96627;-75
2022/01/24 14:07:32;;;;;;;13.77;5.50;;;1.40;56.90;;;-0.76;46.32;102005.41;10406957;27;96569;-76
2022/01/24 14:12:55;;;;;;;12.20;6.10;;;1.40;57.10;;;-0.79;46.40;102008.09;10416999;28;96540;-75
2022/01/24 14:18:23;;;;;;;13.13;4.90;;;1.30;57.00;;;-0.83;46.11;102003.00;10423395;27;97363;-75
2022/01/24 14:23:35;;;;;;;14.10;4.97;;;1.30;57.20;;;-0.88;46.17;101994.47;10419801;27;96404;-75
2022/01/24 14:28:39;;;;;;;11.67;4.60;;;1.30;57.20;;;-0.94;46.56;101996.41;10419089;27;97268;-75
2022/01/24 14:33:45;;;;;;;21.17;6.97;;;1.20;57.30;;;-1.05;47.00;101994.16;10406690;27;96626;-75
2022/01/24 14:39:09;;;;;;;41.77;13.33;;;1.20;57.80;;;-1.17;47.05;101997.16;10391445;27;96588;-75
2022/01/24 14:49:40;;;;;;;61.87;13.47;;;1.00;58.50;;;-1.53;48.55;101996.56;10403516;28;96538;-75
2022/01/24 14:54:44;;;;;;;40.37;10.77;;;0.80;58.30;;;-1.75;49.29;101988.50;10423804;27;96491;-75
2022/01/24 14:59:46;;;;;;;25.13;8.70;;;0.60;59.30;;;-1.98;50.13;101996.97;10418251;28;96444;-75
2022/01/24 15:04:49;;;;;;;33.60;9.60;;;0.40;59.80;;;-2.22;50.47;101998.53;10401572;28;96532;-75
2022/01/24 15:09:52;;;;;;;31.33;12.27;;;0.20;60.10;;;-2.43;51.40;102003.44;10416570;27;96901;-77
2022/01/24 15:14:59;;;;;;;25.77;8.57;;;0.00;60.30;;;-2.65;51.71;101993.63;10407870;27;96870;-75
2022/01/24 15:25:31;;;;;;;69.43;22.67;;;-0.40;62.50;;;-3.05;53.45;102005.03;10407246;27;98139;-76
2022/01/24 15:30:35;;;;;;;38.50;16.00;;;-0.60;62.50;;;-3.23;54.54;102001.13;10407902;28;96454;-76
2022/01/24 15:35:38;;;;;;;25.47;9.87;;;-0.80;63.20;;;-3.43;55.38;102006.75;10417142;27;97574;-76
2022/01/24 15:40:41;;;;;;;48.00;17.57;;;-1.00;64.40;;;-3.61;56.53;102000.22;10417036;27;96729;-76
2022/01/24 15:51:12;;;;;;;56.43;19.03;;;-1.30;65.30;;;-3.99;57.41;102014.03;10375978;27;96599;-75
2022/01/24 15:57:39;;;;;;;64.47;23.57;;;-1.50;67.20;;;-4.15;58.47;102023.84;10373904;28;96635;-75
2022/01/24 16:01:41;;;;;;;150.87;46.17;;;-1.70;69.00;;;-4.34;58.97;102019.91;10383684;28;96782;-76
2022/01/24 16:06:44;;;;;;;107.40;36.10;;;-1.80;68.60;;;-4.53;59.80;102024.56;10432059;27;96710;-76
2022/01/24 16:11:48;;;;;;;105.40;30.33;;;-2.00;70.10;;;-4.70;60.80;102029.19;10413826;27;96900;-76
2022/01/24 16:17:01;;;;;;;50.50;21.10;;;-2.20;71.40;;;-4.85;61.99;102030.31;10424085;27;98585;-76
2022/01/24 16:27:33;;;;;;;69.60;25.63;;;-2.40;73.20;;;-5.04;62.01;102040.09;10381286;27;96811;-77
2022/01/24 16:32:36;;;;;;;40.63;15.23;;;-2.50;72.30;;;-5.11;62.27;102048.88;10375230;28;96533;-77
2022/01/24 16:37:39;;;;;;;136.13;42.83;;;-2.60;74.00;;;-5.20;62.23;102044.69;10406197;27;96946;-79
2022/01/24 16:48:16;;;;;;;53.33;16.87;;;-2.80;73.80;;;-5.26;61.94;102049.97;10352897;27;96513;-78
2022/01/24 16:53:20;;;;;;;75.87;18.23;;;-2.80;72.50;;;-5.16;61.33;102059.31;10391930;27;96659;-78
2022/01/24 16:58:24;;;;;;;88.80;27.60;;;-2.80;71.10;;;-5.12;61.29;102063.56;10453751;27;96519;-78
2022/01/24 17:03:29;;;;;;;71.07;22.60;;;-2.80;70.70;;;-5.08;60.91;102063.53;10373644;28;96977;-78
2022/01/24 17:08:32;;;;;;;58.97;19.83;;;-2.80;70.60;;;-5.07;61.21;102060.91;10426806;27;96681;-78
2022/01/24 17:13:36;;;;;;;27.13;10.47;;;-2.70;70.60;;;-5.02;61.46;102059.09;10439166;27;96440;-79
2022/01/24 17:18:40;;;;;;;45.57;15.47;;;-2.70;71.10;;;-5.01;61.89;102062.56;10405410;27;96462;-79
2022/01/24 17:23:43;;;;;;;74.97;26.53;;;-2.70;71.50;;;-5.04;62.19;102068.63;10419500;27;97953;-79
2022/01/24 17:28:49;;;;;;;41.37;17.87;;;-2.70;71.70;;;-4.99;63.64;102061.63;10430243;27;98467;-78
2022/01/24 17:33:52;;;;;;;37.77;15.73;;;-2.70;71.80;;;-4.95;63.56;102071.09;10442226;27;96555;-77
2022/01/24 17:38:56;;;;;;;22.23;9.10;;;-2.70;72.40;;;-5.01;63.70;102059.97;10423368;27;96555;-77
2022/01/24 17:43:59;;;;;;;23.20;8.53;;;-2.70;75.70;;;-5.12;63.75;102071.34;10427877;27;97032;-78
2022/01/24 17:49:02;;;;;;;19.70;8.50;;;-2.80;77.00;;;-5.28;64.15;102067.25;10376132;28;98180;-78
2022/01/24 17:54:06;;;;;;;26.73;9.73;;;-2.80;76.80;;;-5.44;64.23;102066.63;10413363;27;96449;-78
2022/01/24 17:59:09;;;;;;;21.13;8.83;;;-3.00;77.50;;;-5.56;64.64;102065.91;10367317;28;96594;-78
2022/01/24 18:04:12;;;;;;;29.43;11.13;;;-3.10;78.60;;;-5.68;65.19;102067.78;10392915;28;96602;-78
2022/01/24 18:09:15;;;;;;;34.50;11.40;;;-3.20;79.70;;;-5.74;66.10;102060.09;10410187;27;96540;-78
2022/01/24 18:14:18;;;;;;;32.50;12.33;;;-3.30;81.20;;;-5.83;66.13;102065.38;10381472;28;96606;-78
2022/01/24 18:19:21;;;;;;;27.27;9.90;;;-3.40;80.70;;;-5.95;65.87;102063.81;10371971;28;96527;-78
2022/01/24 18:24:24;;;;;;;28.33;11.30;;;-3.50;80.80;;;-6.07;66.81;102070.88;10441276;27;96693;-78
2022/01/24 18:29:26;;;;;;;24.27;10.27;;;-3.60;84.30;;;-6.22;67.66;102072.75;10434517;27;96640;-78
2022/01/24 18:34:29;;;;;;;24.87;10.17;;;-3.70;84.10;;;-6.33;67.41;102082.34;10438605;27;96519;-78
2022/01/24 18:39:33;;;;;;;46.97;15.07;;;-3.80;82.40;;;-6.44;68.57;102079.00;10403243;27;96822;-79
2022/01/24 18:44:44;;;;;;;61.40;21.23;;;-3.90;87.30;;;-6.54;68.92;102079.94;10403602;27;96498;-78
2022/01/24 18:49:47;;;;;;;57.27;17.77;;;-4.00;88.60;;;-6.66;69.36;102078.31;10441226;27;96601;-78
2022/01/24 18:54:49;;;;;;;76.57;21.47;;;-4.10;91.30;;;-6.76;69.54;102085.31;10412855;27;96635;-79
2022/01/24 18:59:52;;;;;;;64.97;19.47;;;-4.20;90.60;;;-6.87;69.45;102081.94;10400015;27;96581;-78
2022/01/24 19:04:55;;;;;;;57.10;18.37;;;-4.30;90.40;;;-6.96;70.50;102092.31;10395509;28;96663;-78
2022/01/24 19:09:58;;;;;;;71.00;20.83;;;-4.40;90.30;;;-7.05;70.26;102095.00;10419408;27;97585;-77
2022/01/24 19:15:01;;;;;;;65.73;22.13;;;-4.50;90.90;;;-7.17;70.97;102093.34;10420596;28;96415;-78
2022/01/24 19:25:17;;;;;;;29.17;10.90;;;-4.70;94.10;;;-7.22;72.19;102091.66;10391831;27;96538;-78
2022/01/24 19:30:21;;;;;;;29.83;11.10;;;-4.70;96.80;;;-7.15;73.04;102098.47;10417438;27;96612;-78
2022/01/24 19:35:24;;;;;;;28.30;11.20;;;-4.70;97.80;;;-7.05;73.72;102095.00;10376437;28;96442;-78
2022/01/24 19:40:28;;;;;;;32.80;13.63;;;-4.60;99.40;;;-7.00;73.58;102090.66;10377883;27;96671;-77
2022/01/24 19:45:31;;;;;;;34.00;14.43;;;-4.60;99.90;;;-7.02;74.28;102097.53;10412887;27;96581;-78
2022/01/24 19:50:38;;;;;;;33.43;13.97;;;-4.60;99.90;;;-7.08;74.71;102089.81;10400402;27;96456;-78
2022/01/24 19:55:45;;;;;;;44.13;17.73;;;-4.70;99.90;;;-7.13;74.84;102087.28;10407086;27;96644;-77
2022/01/24 20:00:56;;;;;;;50.20;19.13;;;-4.70;99.90;;;-7.17;75.24;102090.75;10399588;27;96836;-79
2022/01/24 20:05:59;;;;;;;57.13;20.13;;;-4.70;99.90;;;-7.17;75.60;102087.31;10421510;27;96822;-78
2022/01/24 20:11:03;;;;;;;43.67;15.23;;;-4.70;99.90;;;-7.23;75.64;102089.94;10436560;27;96580;-77
2022/01/24 20:16:11;;;;;;;68.47;20.80;;;-4.80;99.90;;;-7.30;76.06;102087.38;10410748;27;97133;-82
2022/01/24 20:21:14;;;;;;;62.47;24.70;;;-4.80;99.90;;;-7.40;75.84;102077.97;10390469;27;96591;-79
2022/01/24 20:26:17;;;;;;;55.33;21.03;;;-4.90;99.90;;;-7.51;75.66;102077.16;10408623;27;96634;-78
2022/01/24 20:31:24;;;;;;;46.80;19.53;;;-5.00;99.90;;;-7.61;76.32;102078.09;10417891;27;96679;-79
2022/01/24 20:36:28;;;;;;;51.53;16.40;;;-5.10;99.90;;;-7.71;75.80;102081.56;10383566;27;97499;-78
2022/01/24 20:41:30;;;;;;;38.63;15.13;;;-5.20;99.90;;;-7.77;76.66;102084.16;10400750;27;98402;-78
2022/01/24 20:46:34;;;;;;;36.03;13.57;;;-5.20;99.90;;;-7.79;76.51;102083.31;10389354;27;97012;-77
2022/01/24 20:51:38;;;;;;;36.40;13.40;;;-5.30;99.90;;;-7.83;76.77;102083.31;10439850;27;96581;-78
2022/01/24 20:56:40;;;;;;;54.50;18.33;;;-5.30;99.90;;;-7.88;76.45;102084.19;10421103;27;96592;-77
2022/01/24 21:01:43;;;;;;;56.90;19.17;;;-5.40;99.90;;;-7.98;76.61;102085.94;10407868;28;96962;-78
2022/01/24 21:06:46;;;;;;;64.57;23.10;;;-5.50;99.90;;;-8.08;76.78;102097.16;10422775;27;96652;-78
2022/01/24 21:11:55;;;;;;;68.17;25.40;;;-5.50;99.90;;;-8.19;76.88;102088.59;10400693;28;96553;-77
2022/01/24 21:16:59;;;;;;;61.93;21.43;;;-5.70;99.90;;;-8.28;77.36;102083.44;10388334;27;98593;-78
2022/01/24 21:22:02;;;;;;;66.77;24.10;;;-5.70;99.90;;;-8.37;77.79;102084.34;10392941;28;96665;-78
2022/01/24 21:27:11;;;;;;;39.70;13.60;;;-5.80;99.90;;;-8.35;79.14;102073.13;10383486;27;96718;-77
2022/01/24 21:32:17;;;;;;;24.63;9.73;;;-5.80;99.90;;;-7.94;80.29;102069.59;10421862;27;96588;-78
2022/01/24 21:37:22;;;;;;;23.93;8.70;;;-5.60;99.90;;;-7.40;81.37;102072.78;10391969;27;97120;-78
2022/01/24 21:42:25;;;;;;;21.10;9.07;;;-5.20;99.90;;;-7.05;80.76;102071.72;10423822;27;96576;-78
2022/01/24 21:47:28;;;;;;;20.30;7.97;;;-4.90;99.90;;;-6.74;80.09;102062.00;10377965;28;96585;-78
2022/01/24 21:52:49;;;;;;;25.13;9.40;;;-4.70;99.90;;;-6.42;78.66;102053.09;10386011;28;98425;-78
2022/01/24 21:57:54;;;;;;;29.70;8.90;;;-4.40;99.90;;;-6.30;78.24;102045.22;10389072;27;96668;-78
2022/01/24 22:03:01;;;;;;;26.00;9.47;;;-4.20;99.90;;;-6.17;77.05;102045.97;10398211;27;96746;-78
2022/01/24 22:13:13;;;;;;;24.23;8.80;;;-3.90;99.90;;;-5.91;76.19;102049.13;10368304;28;96537;-78
2022/01/24 22:18:16;;;;;;;22.13;8.80;;;-3.80;99.90;;;-5.96;75.81;102045.72;10382778;28;96720;-78
2022/01/24 22:23:29;;;;;;;29.93;10.97;;;-3.70;99.90;;;-6.10;75.10;102045.88;10376837;28;96441;-78
2022/01/24 22:28:33;;;;;;;27.57;11.70;;;-3.80;99.90;;;-6.13;75.45;102034.69;10378345;28;96579;-78
2022/01/24 22:33:36;;;;;;;29.87;11.67;;;-3.80;99.90;;;-6.27;75.04;102035.72;10380806;28;96493;-78
2022/01/24 22:38:41;;;;;;;26.13;9.40;;;-3.90;99.90;;;-6.20;75.80;102033.91;10423969;27;98162;-78
2022/01/24 22:43:52;;;;;;;32.10;13.47;;;-4.00;99.90;;;-6.21;75.33;102035.66;10417165;28;96597;-78
2022/01/24 22:48:57;;;;;;;23.85;10.10;;;-3.90;99.90;;;-6.35;75.54;102023.75;10433321;27;96758;-78
2022/01/24 22:54:00;;;;;;;30.70;11.37;;;-4.00;99.90;;;-6.45;75.90;102020.38;10401787;28;96862;-78
2022/01/24 22:59:04;;;;;;;26.90;9.90;;;-4.10;99.90;;;-6.50;76.06;102016.97;10395291;27;96516;-78
2022/01/24 23:04:07;;;;;;;30.83;9.70;;;-4.20;99.90;;;-6.60;76.00;102011.03;10390249;28;96511;-78
2022/01/24 23:09:30;;;;;;;27.07;10.30;;;-4.20;99.90;;;-6.72;75.92;102011.13;10400231;28;96578;-78
2022/01/24 23:19:54;;;;;;;20.37;8.30;;;-4.40;99.90;;;-7.08;75.77;102007.13;10370641;28;96620;-78
2022/01/24 23:25:00;;;;;;;49.27;16.17;;;-4.60;99.90;;;-7.27;76.68;102006.41;10411175;28;96852;-78
2022/01/24 23:30:06;;;;;;;47.47;16.33;;;-4.70;99.90;;;-7.45;76.32;102009.97;10401123;28;98413;-78
2022/01/24 23:41:09;;;;;;;71.73;23.50;;;-5.10;99.90;;;-7.85;76.56;102012.78;10385312;28;98399;-78
2022/01/24 23:45:58;;;;;;;77.80;22.00;;;-5.20;99.90;;;-8.04;76.96;102002.53;10422925;27;96916;-78